Time;durP1;ratioP1;P1;durP2;ratioP2;P2;SDS_P1;SDS_P2;PMS_P1;PMS_P2;Temp;Humidity;BMP_temperature;BMP_pressure;BME280_temperature;BME280_humidity;BME280_pressure;Samples;Min_cycle;Max_cycle;Signal;HPM_P1;HPM_P2
2022/03/20 00:01:02;;;;;;;14.57;12.85;;;4.10;93.90;;;;;;5115978;28;20223;-80
2022/03/20 00:03:29;;;;;;;19.55;15.63;;;4.20;94.20;;;;;;5116263;28;20200;-80
2022/03/20 00:05:59;;;;;;;16.30;14.30;;;4.30;93.80;;;;;;5116982;28;20210;-80
2022/03/20 00:08:26;;;;;;;17.73;15.82;;;4.30;93.50;;;;;;5109271;28;20207;-80
2022/03/20 00:10:55;;;;;;;16.05;14.07;;;4.40;93.50;;;;;;5110876;28;20277;-82
2022/03/20 00:13:24;;;;;;;16.58;14.88;;;4.50;92.90;;;;;;5109846;28;20205;-81
2022/03/20 00:15:52;;;;;;;17.38;15.63;;;4.50;92.80;;;;;;5096652;28;20218;-82
2022/03/20 00:18:21;;;;;;;16.38;14.57;;;4.60;92.80;;;;;;5096487;28;20201;-81
2022/03/20 00:20:50;;;;;;;17.52;14.65;;;4.60;92.90;;;;;;5096266;28;20224;-82
2022/03/20 00:23:23;;;;;;;16.83;15.13;;;4.70;92.80;;;;;;5099660;28;20237;-82
2022/03/20 00:25:51;;;;;;;18.00;16.33;;;4.70;92.30;;;;;;5116238;28;20203;-80
2022/03/20 00:28:19;;;;;;;17.45;15.65;;;4.70;92.40;;;;;;5112845;28;20203;-81
2022/03/20 00:30:47;;;;;;;17.35;14.15;;;4.80;92.20;;;;;;5109613;28;20599;-81
2022/03/20 00:33:15;;;;;;;15.02;13.65;;;4.80;92.20;;;;;;5118730;28;20275;-81
2022/03/20 00:35:42;;;;;;;15.98;14.23;;;4.80;92.10;;;;;;5119215;28;20234;-81
2022/03/20 00:38:09;;;;;;;14.82;13.40;;;4.80;92.00;;;;;;5116947;28;20209;-81
2022/03/20 00:40:38;;;;;;;15.27;13.60;;;4.80;92.30;;;;;;5109034;28;20211;-81
2022/03/20 00:43:06;;;;;;;16.60;14.88;;;4.80;92.20;;;;;;5117757;28;20219;-81
2022/03/20 00:45:33;;;;;;;17.50;14.13;;;4.90;92.10;;;;;;5077666;28;20606;-81
2022/03/20 00:48:00;;;;;;;17.63;15.43;;;4.90;92.30;;;;;;5082703;28;20207;-81
2022/03/20 00:50:28;;;;;;;17.27;14.02;;;5.00;92.10;;;;;;5106316;28;20202;-81
2022/03/20 00:52:55;;;;;;;17.67;15.88;;;5.00;92.20;;;;;;5113147;28;20572;-81
2022/03/20 00:55:21;;;;;;;18.83;14.20;;;5.10;92.10;;;;;;5097143;28;20218;-81
2022/03/20 00:57:50;;;;;;;16.70;14.90;;;5.00;91.60;;;;;;5096822;28;20217;-81
2022/03/20 01:00:17;;;;;;;16.95;14.82;;;5.00;91.80;;;;;;5097145;28;20223;-82
2022/03/20 01:02:46;;;;;;;16.58;13.35;;;5.00;91.80;;;;;;5097351;28;20239;-81
2022/03/20 01:05:13;;;;;;;16.35;13.60;;;5.00;91.80;;;;;;5096980;28;20211;-81
2022/03/20 01:07:40;;;;;;;17.77;16.08;;;5.00;91.80;;;;;;5096761;28;20208;-81
2022/03/20 01:10:08;;;;;;;16.25;14.65;;;5.00;91.80;;;;;;5099608;28;20726;-81
2022/03/20 01:12:37;;;;;;;18.85;15.68;;;5.00;92.10;;;;;;5096122;28;20230;-81
2022/03/20 01:15:08;;;;;;;16.67;14.88;;;5.00;92.10;;;;;;5096770;28;20288;-81
2022/03/20 01:17:34;;;;;;;32.38;19.40;;;5.00;91.90;;;;;;5096711;28;20307;-81
2022/03/20 01:20:01;;;;;;;16.73;13.27;;;5.10;92.00;;;;;;5116169;28;20281;-81
2022/03/20 01:22:28;;;;;;;15.63;14.07;;;5.10;92.40;;;;;;5116553;28;20242;-81
2022/03/20 01:24:55;;;;;;;17.00;15.27;;;5.10;92.60;;;;;;5108908;28;20203;-81
2022/03/20 01:27:22;;;;;;;17.48;14.93;;;5.10;92.60;;;;;;5100070;28;20204;-81
2022/03/20 01:29:48;;;;;;;15.65;14.10;;;5.10;92.50;;;;;;5099922;28;20692;-81
2022/03/20 01:32:17;;;;;;;19.98;17.00;;;5.10;92.50;;;;;;5107155;28;20314;-81
2022/03/20 01:34:44;;;;;;;18.33;16.42;;;5.10;92.30;;;;;;5116477;28;20211;-79
2022/03/20 01:37:11;;;;;;;18.40;15.18;;;5.10;92.30;;;;;;5111992;28;20200;-81
2022/03/20 01:39:38;;;;;;;17.00;15.30;;;4.90;91.80;;;;;;5131407;28;20320;-81
2022/03/20 01:42:06;;;;;;;19.85;16.02;;;4.90;92.00;;;;;;5129984;28;20234;-81
2022/03/20 01:44:33;;;;;;;16.27;14.73;;;5.00;91.90;;;;;;5123273;28;20208;-82
2022/03/20 01:47:00;;;;;;;16.55;14.85;;;5.00;91.70;;;;;;5120949;28;20214;-81
2022/03/20 01:49:29;;;;;;;17.10;15.15;;;5.00;92.00;;;;;;5080175;28;20205;-82
2022/03/20 01:52:11;;;;;;;17.17;15.52;;;4.90;92.50;;;;;;5079980;28;20250;-81
2022/03/20 01:54:38;;;;;;;20.70;13.60;;;4.90;92.70;;;;;;5079929;28;20208;-82
2022/03/20 01:57:07;;;;;;;15.55;13.65;;;4.90;92.80;;;;;;5080146;28;20212;-82
2022/03/20 01:59:34;;;;;;;15.65;14.13;;;4.70;92.80;;;;;;5079849;28;20627;-81
2022/03/20 02:02:02;;;;;;;20.52;15.60;;;4.70;92.70;;;;;;5078788;28;20235;-81
2022/03/20 02:04:30;;;;;;;16.08;12.93;;;4.80;93.20;;;;;;5118817;28;20200;-82
2022/03/20 02:06:57;;;;;;;21.67;16.13;;;4.70;93.40;;;;;;5121470;28;20748;-81
2022/03/20 02:09:24;;;;;;;19.20;15.23;;;4.80;93.80;;;;;;5120089;28;20305;-82
2022/03/20 02:11:52;;;;;;;15.63;13.98;;;4.80;94.10;;;;;;5119650;28;20216;-82
2022/03/20 02:14:19;;;;;;;16.33;14.63;;;4.80;94.00;;;;;;5102632;28;20211;-81
2022/03/20 02:16:46;;;;;;;20.50;15.80;;;4.80;93.90;;;;;;5100249;28;20203;-81
2022/03/20 02:19:14;;;;;;;18.33;15.93;;;4.80;94.10;;;;;;5100255;28;20207;-81
2022/03/20 02:21:43;;;;;;;20.08;16.33;;;4.90;94.20;;;;;;5099718;28;20724;-81
2022/03/20 02:24:46;;;;;;;16.92;15.35;;;4.80;93.90;;;;;;5116106;28;20202;-81
2022/03/20 02:27:16;;;;;;;16.90;15.38;;;4.80;94.00;;;;;;5056740;28;20212;-81
2022/03/20 02:29:45;;;;;;;18.13;15.57;;;4.80;94.20;;;;;;5040721;28;20213;-81
2022/03/20 02:32:13;;;;;;;20.77;15.77;;;4.90;94.30;;;;;;5067760;28;20229;-81
2022/03/20 02:34:40;;;;;;;19.48;15.07;;;4.80;94.20;;;;;;5099873;28;20215;-81
2022/03/20 02:37:09;;;;;;;17.00;15.30;;;4.80;94.40;;;;;;5100750;28;20200;-81
2022/03/20 02:39:36;;;;;;;17.65;15.85;;;4.90;94.40;;;;;;5120192;28;20253;-81
2022/03/20 02:42:05;;;;;;;18.75;15.68;;;4.80;94.40;;;;;;5120089;28;20227;-81
2022/03/20 02:44:54;;;;;;;16.73;14.82;;;4.80;94.50;;;;;;5120189;28;20204;-81
2022/03/20 02:47:24;;;;;;;17.50;14.90;;;4.90;94.70;;;;;;5119927;28;20204;-82
2022/03/20 02:49:53;;;;;;;20.48;15.10;;;4.90;94.30;;;;;;5120415;28;20671;-81
2022/03/20 02:52:24;;;;;;;17.90;14.32;;;4.90;94.20;;;;;;5118728;28;20224;-82
2022/03/20 02:54:51;;;;;;;16.25;14.60;;;4.90;93.70;;;;;;5119432;28;20262;-81
2022/03/20 02:57:17;;;;;;;16.27;14.57;;;4.90;93.80;;;;;;5118707;28;20210;-81
2022/03/20 02:59:44;;;;;;;21.02;16.73;;;4.90;94.00;;;;;;5100018;28;20204;-81
2022/03/20 03:02:11;;;;;;;20.45;17.73;;;4.90;94.00;;;;;;5099333;28;20254;-81
2022/03/20 03:04:38;;;;;;;16.00;14.27;;;4.90;94.20;;;;;;5088676;28;20208;-81
2022/03/20 03:07:05;;;;;;;19.25;13.80;;;4.90;94.30;;;;;;5099124;28;20207;-81
2022/03/20 03:12:14;;;;;;;20.50;18.33;;;5.00;94.30;;;;;;5084499;28;20223;-81
2022/03/20 03:17:28;;;;;;;17.55;14.23;;;5.00;93.80;;;;;;5082372;28;20222;-81
2022/03/20 03:19:55;;;;;;;15.88;14.32;;;5.00;93.50;;;;;;5099333;28;20662;-80
2022/03/20 03:22:23;;;;;;;16.80;15.02;;;4.90;93.10;;;;;;5098389;28;20224;-81
2022/03/20 03:24:51;;;;;;;17.92;16.15;;;5.00;93.30;;;;;;5098127;28;20208;-81
2022/03/20 03:27:18;;;;;;;17.25;14.75;;;5.00;93.50;;;;;;5117110;28;20576;-81
2022/03/20 03:29:45;;;;;;;16.35;14.70;;;5.00;93.20;;;;;;5119445;28;20203;-81
2022/03/20 03:32:12;;;;;;;18.67;14.68;;;4.90;93.20;;;;;;5100048;28;20606;-81
2022/03/20 03:37:23;;;;;;;20.08;15.30;;;4.90;93.30;;;;;;5116039;28;20206;-81
2022/03/20 03:39:51;;;;;;;22.73;16.33;;;4.90;92.80;;;;;;5098934;28;20208;-81
2022/03/20 03:42:18;;;;;;;20.20;16.65;;;4.90;92.50;;;;;;5115509;28;20615;-81
2022/03/20 03:44:44;;;;;;;18.55;14.80;;;5.00;92.60;;;;;;5118648;28;20208;-81
2022/03/20 03:47:11;;;;;;;19.77;17.90;;;5.00;92.60;;;;;;5102450;28;20200;-81
2022/03/20 03:49:38;;;;;;;16.48;14.88;;;5.00;92.90;;;;;;5116977;28;20208;-81
2022/03/20 03:52:06;;;;;;;18.17;16.27;;;5.10;93.20;;;;;;5117159;28;20230;-81
2022/03/20 03:54:33;;;;;;;17.67;15.60;;;5.10;93.30;;;;;;5118355;28;20203;-81
2022/03/20 03:57:01;;;;;;;20.00;16.90;;;5.10;93.20;;;;;;5117973;28;20608;-81
2022/03/20 03:59:28;;;;;;;16.83;15.05;;;5.20;92.50;;;;;;5117519;28;20229;-81
2022/03/20 04:01:56;;;;;;;18.83;15.38;;;5.20;92.40;;;;;;5105892;28;20220;-80
2022/03/20 04:04:22;;;;;;;18.35;15.93;;;5.20;92.00;;;;;;5097855;28;20225;-81
2022/03/20 04:06:49;;;;;;;16.77;15.02;;;5.20;91.60;;;;;;5098431;28;20206;-81
2022/03/20 04:09:16;;;;;;;16.35;14.70;;;5.20;91.50;;;;;;5099216;28;20571;-80
2022/03/20 04:11:43;;;;;;;23.48;16.10;;;5.10;91.40;;;;;;5113806;28;20227;-81
2022/03/20 04:14:11;;;;;;;20.60;16.50;;;5.10;91.20;;;;;;5122007;28;20199;-81
2022/03/20 04:16:38;;;;;;;19.80;17.35;;;4.90;91.20;;;;;;5105338;28;20197;-81
2022/03/20 04:19:05;;;;;;;18.80;15.43;;;4.90;91.30;;;;;;5113346;28;20206;-81
2022/03/20 04:21:32;;;;;;;19.60;15.23;;;4.70;91.60;;;;;;5104637;28;20228;-80
2022/03/20 04:23:59;;;;;;;23.17;15.88;;;4.70;91.80;;;;;;5111501;28;20224;-81
2022/03/20 04:26:26;;;;;;;19.33;15.75;;;4.60;91.90;;;;;;5119906;28;20211;-80
2022/03/20 04:28:54;;;;;;;18.30;13.68;;;4.60;92.00;;;;;;5118718;28;20214;-81
2022/03/20 04:31:22;;;;;;;16.05;14.35;;;4.50;92.10;;;;;;5117196;28;20235;-81
2022/03/20 04:33:53;;;;;;;17.35;15.43;;;4.50;92.60;;;;;;5106200;28;20388;-82
2022/03/20 04:36:22;;;;;;;19.38;15.75;;;4.50;92.50;;;;;;5097441;28;20211;-81
2022/03/20 04:38:50;;;;;;;20.13;16.63;;;4.60;92.70;;;;;;5102455;28;20196;-81
2022/03/20 04:41:18;;;;;;;21.38;15.30;;;4.60;92.60;;;;;;5118827;28;20223;-81
2022/03/20 04:43:45;;;;;;;19.33;17.33;;;4.70;92.90;;;;;;5108062;28;20273;-81
2022/03/20 04:46:12;;;;;;;18.15;16.30;;;4.70;93.10;;;;;;5098999;28;20689;-81
2022/03/20 04:59:37;;;;;;;18.58;16.20;;;4.90;93.50;;;;;;5098602;28;20273;-81
2022/03/20 05:02:04;;;;;;;21.30;17.30;;;4.90;93.20;;;;;;5099188;28;20231;-81
2022/03/20 05:04:32;;;;;;;19.25;17.20;;;4.80;93.00;;;;;;5117563;28;20226;-81
2022/03/20 05:06:59;;;;;;;18.60;16.52;;;4.90;92.80;;;;;;5121066;28;20204;-81
2022/03/20 05:14:57;;;;;;;18.60;15.43;;;4.80;92.70;;;;;;5120215;28;20210;-81
2022/03/20 05:17:24;;;;;;;20.60;16.48;;;4.90;92.80;;;;;;5120488;28;20206;-81
2022/03/20 05:19:52;;;;;;;18.73;16.60;;;4.90;92.70;;;;;;5119842;27;20204;-81
2022/03/20 05:22:19;;;;;;;19.92;17.13;;;4.90;92.50;;;;;;5113652;28;20763;-81
2022/03/20 05:24:45;;;;;;;19.50;17.45;;;4.90;92.40;;;;;;5100005;28;20772;-81
2022/03/20 05:27:12;;;;;;;22.77;17.33;;;4.90;92.60;;;;;;5101056;28;20223;-81
2022/03/20 05:29:40;;;;;;;20.55;17.45;;;4.90;92.50;;;;;;5099184;28;20219;-81
2022/03/20 05:32:09;;;;;;;25.23;18.40;;;4.90;92.90;;;;;;5099110;28;20236;-81
2022/03/20 05:34:37;;;;;;;20.20;16.75;;;4.90;93.10;;;;;;5099112;28;20207;-81
2022/03/20 05:37:08;;;;;;;25.98;17.02;;;4.90;93.00;;;;;;5098867;28;20231;-81
2022/03/20 05:39:35;;;;;;;18.35;15.82;;;5.00;93.20;;;;;;5099248;28;20228;-81
2022/03/20 05:42:03;;;;;;;22.88;18.15;;;4.90;93.20;;;;;;5099539;28;20721;-81
2022/03/20 05:44:30;;;;;;;21.10;17.50;;;4.90;93.40;;;;;;5119665;28;20639;-81
2022/03/20 05:47:00;;;;;;;23.65;17.55;;;5.00;93.50;;;;;;5114399;27;20206;-81
2022/03/20 05:49:27;;;;;;;20.13;17.98;;;5.00;93.40;;;;;;5099169;28;20200;-81
2022/03/20 05:51:54;;;;;;;23.92;18.23;;;5.00;93.60;;;;;;5099274;28;20212;-81
2022/03/20 05:54:23;;;;;;;24.10;17.73;;;5.00;93.80;;;;;;5098945;28;20341;-81
2022/03/20 05:59:36;;;;;;;20.80;18.58;;;5.10;93.90;;;;;;5099951;28;20253;-81
2022/03/20 06:02:03;;;;;;;25.42;20.55;;;5.20;93.70;;;;;;5099579;28;20236;-82
2022/03/20 06:04:32;;;;;;;20.20;18.27;;;5.30;93.80;;;;;;5111309;28;20400;-82
2022/03/20 06:06:59;;;;;;;27.50;19.38;;;5.40;93.70;;;;;;5098260;28;20208;-81
2022/03/20 06:09:28;;;;;;;22.60;19.08;;;5.40;93.90;;;;;;5096991;28;20204;-82
2022/03/20 06:11:55;;;;;;;22.10;18.20;;;5.50;94.20;;;;;;5098138;28;20229;-81
2022/03/20 06:14:22;;;;;;;21.60;17.77;;;5.60;94.30;;;;;;5117920;28;20227;-82
2022/03/20 06:16:50;;;;;;;21.33;18.02;;;5.70;94.40;;;;;;5109672;28;20204;-81
2022/03/20 06:19:17;;;;;;;20.58;18.23;;;5.70;94.30;;;;;;5097342;28;20212;-81
2022/03/20 06:21:44;;;;;;;22.05;18.30;;;5.80;94.30;;;;;;5097395;28;20216;-82
2022/03/20 06:24:11;;;;;;;23.35;19.52;;;5.80;93.90;;;;;;5103916;28;20221;-81
2022/03/20 06:26:39;;;;;;;29.83;19.33;;;5.80;93.30;;;;;;5118244;28;20196;-81
2022/03/20 06:29:06;;;;;;;19.17;17.10;;;5.80;93.40;;;;;;5117381;27;20207;-81
2022/03/20 06:31:34;;;;;;;19.40;17.30;;;5.80;93.70;;;;;;5117993;28;20243;-81
2022/03/20 06:34:01;;;;;;;23.13;18.40;;;5.90;94.10;;;;;;5119345;28;20230;-81
2022/03/20 06:36:29;;;;;;;22.95;19.48;;;5.90;93.90;;;;;;5117949;28;20199;-81
2022/03/20 06:38:56;;;;;;;22.42;19.25;;;5.90;94.00;;;;;;5117875;28;20665;-81
2022/03/20 06:41:23;;;;;;;22.55;20.35;;;6.00;93.90;;;;;;5117797;27;20223;-81
2022/03/20 06:43:51;;;;;;;26.60;21.85;;;6.00;93.80;;;;;;5118041;28;20227;-81
2022/03/20 06:46:18;;;;;;;22.75;20.45;;;6.00;93.70;;;;;;5117348;28;20204;-81
2022/03/20 06:48:45;;;;;;;21.05;18.35;;;6.00;93.40;;;;;;5118584;28;20204;-81
2022/03/20 06:51:12;;;;;;;24.75;18.50;;;6.10;93.60;;;;;;5117528;28;20228;-81
2022/03/20 06:53:39;;;;;;;24.60;21.17;;;6.10;93.70;;;;;;5118737;27;20214;-82
2022/03/20 06:56:06;;;;;;;26.80;19.63;;;6.10;93.70;;;;;;5118142;28;20214;-81
2022/03/20 06:58:32;;;;;;;25.92;20.67;;;6.10;93.90;;;;;;5118331;28;20203;-81
2022/03/20 07:01:00;;;;;;;24.45;21.90;;;6.10;94.00;;;;;;5118095;28;20231;-81
2022/03/20 07:03:28;;;;;;;24.45;20.00;;;6.20;94.20;;;;;;5098443;28;20220;-81
2022/03/20 07:05:55;;;;;;;23.52;20.67;;;6.20;94.00;;;;;;5098908;28;20212;-81
2022/03/20 07:08:21;;;;;;;23.45;20.60;;;6.30;94.10;;;;;;5102745;28;20230;-81
2022/03/20 07:10:48;;;;;;;29.92;21.50;;;6.40;94.30;;;;;;5106544;28;20235;-81
2022/03/20 07:16:00;;;;;;;25.75;18.00;;;6.60;93.70;;;;;;5105090;28;20203;-81
2022/03/20 07:18:27;;;;;;;26.45;21.25;;;6.70;93.70;;;;;;5102361;28;20222;-81
2022/03/20 07:20:55;;;;;;;27.13;20.95;;;6.80;93.50;;;;;;5097981;28;20234;-82
2022/03/20 07:23:22;;;;;;;24.00;19.65;;;6.80;92.90;;;;;;5101582;28;20216;-81
2022/03/20 07:31:19;;;;;;;29.02;21.88;;;7.00;93.40;;;;;;5079634;28;20228;-82
2022/03/20 07:33:48;;;;;;;25.80;20.83;;;6.90;92.60;;;;;;5099396;28;20205;-82
2022/03/20 07:36:15;;;;;;;23.98;20.13;;;7.00;92.50;;;;;;5098578;28;20717;-82
2022/03/20 07:38:42;;;;;;;26.65;21.58;;;7.10;92.50;;;;;;5097604;28;20214;-81
2022/03/20 07:41:09;;;;;;;22.27;19.95;;;7.20;92.60;;;;;;5097287;28;20312;-82
2022/03/20 07:43:35;;;;;;;24.38;21.45;;;7.30;92.40;;;;;;5097079;28;20232;-81
2022/03/20 07:46:02;;;;;;;26.85;22.10;;;7.30;92.40;;;;;;5096920;28;20208;-81
2022/03/20 07:48:30;;;;;;;24.30;20.55;;;7.40;92.50;;;;;;5115847;28;20200;-81
2022/03/20 07:50:59;;;;;;;25.73;21.00;;;7.40;92.20;;;;;;5116509;28;20234;-81
2022/03/20 07:53:26;;;;;;;27.33;22.33;;;7.50;91.50;;;;;;5117688;27;20203;-82
2022/03/20 07:55:53;;;;;;;28.75;22.75;;;7.60;91.70;;;;;;5117211;28;20290;-82
2022/03/20 07:58:21;;;;;;;31.65;23.27;;;7.60;91.60;;;;;;5097663;28;20208;-81
2022/03/20 08:00:48;;;;;;;23.73;20.15;;;7.70;91.50;;;;;;5096701;28;20231;-81
2022/03/20 08:03:15;;;;;;;27.00;21.27;;;7.80;91.30;;;;;;5114070;28;20205;-82
2022/03/20 08:05:43;;;;;;;26.00;20.92;;;7.90;91.40;;;;;;5117424;28;20222;-81
2022/03/20 08:08:14;;;;;;;25.63;20.85;;;7.90;91.20;;;;;;5099933;28;20196;-82
2022/03/20 08:10:41;;;;;;;30.45;22.75;;;8.10;91.20;;;;;;5096588;28;20220;-81
2022/03/20 08:13:09;;;;;;;30.20;21.85;;;8.40;90.90;;;;;;5112333;28;20203;-81
2022/03/20 08:15:36;;;;;;;22.58;19.92;;;8.40;90.70;;;;;;5117300;28;20200;-82
2022/03/20 08:18:04;;;;;;;24.73;20.08;;;8.40;90.30;;;;;;5116121;28;20200;-82
2022/03/20 08:20:31;;;;;;;25.13;20.13;;;8.60;90.40;;;;;;5117615;28;20721;-81
2022/03/20 08:23:00;;;;;;;24.45;20.42;;;8.70;90.20;;;;;;5117621;28;20204;-81
2022/03/20 08:25:27;;;;;;;25.92;21.15;;;8.70;89.50;;;;;;5117001;28;20226;-81
2022/03/20 08:27:54;;;;;;;24.20;21.65;;;8.70;88.10;;;;;;5115944;28;20192;-81
2022/03/20 08:30:22;;;;;;;26.05;20.83;;;8.70;88.70;;;;;;5116296;28;20283;-81
2022/03/20 08:32:49;;;;;;;25.35;20.92;;;8.80;89.60;;;;;;5104152;28;20200;-82
2022/03/20 08:35:17;;;;;;;23.88;20.98;;;9.00;88.90;;;;;;5098386;28;20197;-82
2022/03/20 08:37:45;;;;;;;26.90;21.75;;;9.10;88.00;;;;;;5115620;28;20203;-81
2022/03/20 08:40:16;;;;;;;25.23;19.58;;;9.20;88.10;;;;;;5112279;28;20203;-81
2022/03/20 08:42:45;;;;;;;28.10;20.63;;;9.30;87.10;;;;;;5101348;28;20292;-81
2022/03/20 08:45:12;;;;;;;24.60;22.10;;;9.40;87.40;;;;;;5108602;28;20225;-82
2022/03/20 08:47:40;;;;;;;24.30;21.70;;;9.40;87.20;;;;;;5108337;28;20289;-82
2022/03/20 08:50:08;;;;;;;24.77;22.40;;;9.50;87.10;;;;;;5102007;28;20207;-82
2022/03/20 08:52:35;;;;;;;25.80;23.02;;;9.70;86.50;;;;;;5101906;28;20228;-82
2022/03/20 08:55:09;;;;;;;24.38;19.73;;;9.80;86.00;;;;;;5106801;28;20189;-81
2022/03/20 08:57:39;;;;;;;25.13;19.95;;;9.70;85.00;;;;;;5109642;28;20206;-82
2022/03/20 09:00:08;;;;;;;21.03;18.83;;;9.90;86.30;;;;;;5106412;28;20274;-82
2022/03/20 09:02:35;;;;;;;22.63;20.23;;;10.10;85.00;;;;;;5121911;28;20465;-82
2022/03/20 09:05:02;;;;;;;24.20;18.80;;;10.20;83.70;;;;;;5116746;28;20574;-82
2022/03/20 09:07:29;;;;;;;22.90;19.57;;;10.40;81.90;;;;;;5112288;28;20485;-82
2022/03/20 09:13:04;;;;;;;22.23;19.40;;;10.70;81.10;;;;;;5103500;28;20768;-81
2022/03/20 09:15:31;;;;;;;24.93;21.00;;;10.90;79.80;;;;;;5113501;28;20453;-81
2022/03/20 09:20:47;;;;;;;23.77;19.67;;;11.10;79.00;;;;;;5111374;28;20455;-81
2022/03/20 09:23:16;;;;;;;26.63;21.63;;;11.30;79.90;;;;;;5100955;28;20460;-81
2022/03/20 09:25:43;;;;;;;23.93;20.70;;;11.50;77.10;;;;;;5108938;28;20494;-81
2022/03/20 09:28:13;;;;;;;20.13;17.80;;;11.60;76.70;;;;;;5105374;28;20540;-81
2022/03/20 09:30:42;;;;;;;21.70;18.70;;;11.70;76.30;;;;;;5100710;28;20553;-80
2022/03/20 09:33:09;;;;;;;25.30;18.27;;;11.90;74.10;;;;;;5100609;28;20479;-81
2022/03/20 09:35:37;;;;;;;23.00;19.40;;;12.00;74.20;;;;;;5101012;28;20449;-80
2022/03/20 09:38:07;;;;;;;21.10;18.10;;;12.20;74.20;;;;;;5100678;28;20946;-81
2022/03/20 09:40:37;;;;;;;20.87;17.93;;;12.30;73.90;;;;;;5105028;28;20448;-81
2022/03/20 09:43:05;;;;;;;24.07;20.53;;;12.60;74.60;;;;;;5120496;28;20475;-81
2022/03/20 09:45:35;;;;;;;20.47;17.93;;;12.80;72.90;;;;;;5115415;28;20474;-80
2022/03/20 09:48:02;;;;;;;22.93;17.67;;;12.90;71.90;;;;;;5100815;28;20454;-83
2022/03/20 09:50:31;;;;;;;22.40;18.20;;;13.00;71.90;;;;;;5101886;28;20469;-82
2022/03/20 09:52:59;;;;;;;18.73;16.73;;;12.90;70.50;;;;;;5101136;28;20454;-82
2022/03/20 09:55:28;;;;;;;23.97;18.70;;;12.90;71.30;;;;;;5100944;28;20808;-83
2022/03/20 09:57:57;;;;;;;21.33;17.90;;;13.10;71.80;;;;;;5115337;28;20809;-79
2022/03/20 10:00:24;;;;;;;20.37;18.27;;;13.20;71.20;;;;;;5117615;28;20493;-80
2022/03/20 10:02:52;;;;;;;20.87;18.07;;;13.30;71.10;;;;;;5120219;28;20480;-80
2022/03/20 10:05:21;;;;;;;17.53;15.27;;;13.50;72.80;;;;;;5114583;28;20480;-80
2022/03/20 10:07:48;;;;;;;18.90;16.93;;;13.80;71.40;;;;;;5098941;28;20447;-79
2022/03/20 10:10:17;;;;;;;20.50;18.40;;;14.10;71.70;;;;;;5098061;28;20447;-78
2022/03/20 10:12:47;;;;;;;21.33;18.97;;;14.40;69.50;;;;;;5098945;28;20491;-79
2022/03/20 10:15:31;;;;;;;17.90;16.03;;;14.70;70.00;;;;;;5098021;28;20881;-79
2022/03/20 10:18:11;;;;;;;21.10;18.57;;;14.70;69.10;;;;;;5119805;28;20498;-79
2022/03/20 10:20:41;;;;;;;19.37;16.47;;;14.80;69.20;;;;;;5114815;28;20512;-80
2022/03/20 10:23:30;;;;;;;18.20;15.57;;;14.70;69.90;;;;;;5098502;28;20449;-78
2022/03/20 10:25:57;;;;;;;21.60;17.10;;;14.50;70.20;;;;;;5100470;28;20478;-78
2022/03/20 10:28:38;;;;;;;18.13;16.20;;;14.50;71.30;;;;;;5101682;28;20451;-80
2022/03/20 10:31:17;;;;;;;22.10;17.10;;;14.40;71.00;;;;;;5112544;28;20499;-78
2022/03/20 10:33:59;;;;;;;19.10;15.57;;;14.50;71.50;;;;;;5121232;28;20449;-80
2022/03/20 10:36:26;;;;;;;17.20;15.47;;;14.50;71.30;;;;;;5113113;27;21035;-79
2022/03/20 10:38:53;;;;;;;18.20;15.90;;;14.50;71.10;;;;;;5098460;28;20449;-79
2022/03/20 10:41:22;;;;;;;19.47;16.13;;;14.50;70.90;;;;;;5122624;28;20484;-80
2022/03/20 10:43:50;;;;;;;18.97;16.27;;;14.50;71.10;;;;;;5116711;28;21001;-79
2022/03/20 10:46:21;;;;;;;23.10;18.13;;;14.60;71.20;;;;;;5102456;28;20487;-80
2022/03/20 10:48:52;;;;;;;22.33;17.30;;;14.60;70.60;;;;;;5107827;28;20461;-79
2022/03/20 10:51:38;;;;;;;18.43;16.73;;;14.60;70.30;;;;;;5120395;28;20508;-79
2022/03/20 10:54:06;;;;;;;19.50;16.37;;;14.70;70.30;;;;;;5117013;28;20454;-80
2022/03/20 10:56:33;;;;;;;21.13;16.97;;;14.80;69.60;;;;;;5106239;28;20453;-79
2022/03/20 10:59:02;;;;;;;16.87;15.07;;;15.00;69.10;;;;;;5110372;28;20446;-80
2022/03/20 11:01:36;;;;;;;19.50;15.67;;;15.00;68.90;;;;;;5120038;28;20473;-80
2022/03/20 11:04:05;;;;;;;17.00;15.37;;;15.10;69.10;;;;;;5117654;28;20438;-80
2022/03/20 11:06:31;;;;;;;20.10;17.97;;;15.20;68.40;;;;;;5119133;28;20486;-80
2022/03/20 11:09:02;;;;;;;20.87;17.03;;;15.10;68.70;;;;;;5107687;28;20463;-80
2022/03/20 11:11:30;;;;;;;20.87;14.80;;;15.30;67.80;;;;;;5098097;28;20536;-80
2022/03/20 11:13:59;;;;;;;18.13;15.83;;;15.30;67.50;;;;;;5108632;28;20424;-79
2022/03/20 11:16:28;;;;;;;20.43;16.83;;;15.40;68.10;;;;;;5120338;28;20441;-79
2022/03/20 11:18:57;;;;;;;17.37;15.67;;;15.80;68.00;;;;;;5084271;28;20447;-79
2022/03/20 11:21:27;;;;;;;19.80;14.33;;;16.50;66.40;;;;;;5082227;28;20488;-78
2022/03/20 11:23:55;;;;;;;16.83;15.13;;;17.00;64.10;;;;;;5123042;28;20439;-80
2022/03/20 11:26:22;;;;;;;18.50;15.93;;;17.80;63.50;;;;;;5125637;28;20483;-79
2022/03/20 11:28:56;;;;;;;18.63;14.33;;;18.50;60.40;;;;;;5128606;28;20452;-79
2022/03/20 11:31:23;;;;;;;16.57;14.90;;;19.00;58.90;;;;;;5111026;28;20507;-79
2022/03/20 11:33:51;;;;;;;18.83;16.77;;;19.40;57.70;;;;;;5129131;28;20458;-81
2022/03/20 11:36:17;;;;;;;18.13;16.10;;;19.40;56.40;;;;;;5116573;28;20457;-79
2022/03/20 11:39:10;;;;;;;18.57;16.57;;;19.80;57.20;;;;;;5104315;28;20461;-79
2022/03/20 11:41:37;;;;;;;16.55;14.82;;;19.80;55.50;;;;;;5111359;28;20595;-80
2022/03/20 11:44:15;;;;;;;14.63;13.13;;;20.30;56.80;;;;;;5119154;28;20208;-80
2022/03/20 11:46:43;;;;;;;16.60;13.20;;;20.90;54.50;;;;;;5111751;28;20541;-81
2022/03/20 11:49:23;;;;;;;13.27;11.10;;;21.40;53.10;;;;;;5117656;28;20503;-80
2022/03/20 11:52:00;;;;;;;12.50;10.73;;;21.60;51.40;;;;;;5095303;28;20485;-80
2022/03/20 11:54:50;;;;;;;11.70;10.50;;;21.40;50.60;;;;;;5096294;28;20447;-80
2022/03/20 11:57:39;;;;;;;11.07;10.00;;;20.90;49.70;;;;;;5076591;28;20448;-80
2022/03/20 12:00:19;;;;;;;10.47;9.43;;;20.80;49.50;;;;;;5110158;28;20450;-79
2022/03/20 12:03:10;;;;;;;11.00;9.93;;;20.90;49.30;;;;;;5118477;28;20977;-81
2022/03/20 12:06:03;;;;;;;10.37;9.07;;;21.00;48.60;;;;;;5098859;28;20482;-80
2022/03/20 12:08:42;;;;;;;12.77;11.57;;;21.50;49.90;;;;;;5104212;28;20443;-80
2022/03/20 12:11:27;;;;;;;12.37;10.30;;;21.70;49.30;;;;;;5119607;28;20468;-81
2022/03/20 12:14:06;;;;;;;9.87;8.93;;;22.00;47.90;;;;;;5119154;28;20436;-80
2022/03/20 12:16:52;;;;;;;11.20;9.40;;;22.00;47.20;;;;;;5106122;28;20531;-81
2022/03/20 12:19:20;;;;;;;9.57;8.67;;;22.20;47.50;;;;;;5130548;28;20453;-81
2022/03/20 12:21:56;;;;;;;9.20;8.30;;;22.20;46.60;;;;;;5124954;28;20493;-81
2022/03/20 12:24:53;;;;;;;10.73;9.27;;;22.20;47.20;;;;;;5109834;28;20432;-81
2022/03/20 12:27:40;;;;;;;9.90;8.90;;;22.30;46.80;;;;;;5116969;28;20977;-81
2022/03/20 12:30:32;;;;;;;13.20;11.80;;;22.60;46.50;;;;;;5129659;28;20457;-81
2022/03/20 12:33:02;;;;;;;12.17;10.97;;;22.90;48.50;;;;;;5097306;22;20495;-84
2022/03/20 12:35:41;;;;;;;13.80;12.37;;;23.00;46.20;;;;;;5074977;28;20446;-84
2022/03/20 12:38:08;;;;;;;14.17;12.57;;;22.90;45.90;;;;;;5069400;28;20452;-84
2022/03/20 12:40:43;;;;;;;14.97;13.43;;;22.90;46.60;;;;;;5059451;28;20942;-82
2022/03/20 12:43:28;;;;;;;14.43;11.40;;;22.70;46.00;;;;;;5059318;28;20762;-82
2022/03/20 12:45:57;;;;;;;12.90;10.43;;;22.90;46.30;;;;;;5058324;28;20497;-82
2022/03/20 12:48:25;;;;;;;13.60;12.17;;;23.50;46.70;;;;;;5063177;28;20490;-82
2022/03/20 12:51:04;;;;;;;12.23;10.93;;;24.20;45.80;;;;;;5059983;28;20452;-83
2022/03/20 12:53:46;;;;;;;13.40;11.23;;;25.10;43.60;;;;;;5060566;28;20543;-82
2022/03/20 12:56:19;;;;;;;12.93;11.73;;;25.40;42.30;;;;;;5069897;28;20442;-83
2022/03/20 13:02:06;;;;;;;13.47;12.20;;;26.60;41.30;;;;;;5059538;28;20464;-83
2022/03/20 13:04:34;;;;;;;14.40;12.90;;;27.30;39.80;;;;;;5060830;28;20458;-82
2022/03/20 13:07:22;;;;;;;13.70;12.40;;;27.60;37.60;;;;;;5060138;28;20486;-82
2022/03/20 13:10:00;;;;;;;14.00;12.60;;;27.50;37.00;;;;;;5061065;28;20461;-83
2022/03/20 13:12:38;;;;;;;13.53;12.13;;;27.10;35.70;;;;;;5059273;28;20488;-82
2022/03/20 13:15:12;;;;;;;12.30;11.20;;;26.80;36.20;;;;;;5060398;28;20923;-83
2022/03/20 13:17:39;;;;;;;15.47;12.17;;;27.10;36.40;;;;;;5059807;28;20457;-83
2022/03/20 13:20:34;;;;;;;11.87;10.70;;;26.90;35.20;;;;;;5059125;28;20453;-80
2022/03/20 13:26:04;;;;;;;15.00;13.60;;;28.50;35.10;;;;;;5063053;28;20485;-83
2022/03/20 13:28:38;;;;;;;13.77;12.43;;;29.10;33.60;;;;;;5063047;28;20455;-82
2022/03/20 13:34:29;;;;;;;17.70;16.10;;;29.20;32.10;;;;;;5065694;28;20521;-83
2022/03/20 13:37:25;;;;;;;16.30;14.70;;;28.80;32.00;;;;;;5063132;28;20939;-83